logo tempoitalia

Diretta Meteo Brescia-Montichiari, Italiasabato 15 agosto ore 08:50

Mappa
Sereno 24 °C Sereno 24 Ore: T.min 20 T.max 30
Ponente Est/Nord-Est Km/h 9.3 Punto di rugiada: 16 °C Umidità: 60% Visibilità: 10 Km
Il sole sorge alle: 06:18 Il sole tramonta alle: 20:27
15 Agosto 2020 08:50 tempo osservato: Sereno Sereno 24 60 1013 vento: Nord E/NE 9.3
15 Agosto 2020 08:20 tempo osservato: Sereno Sereno 23 64 1013 vento: Nord NE 11.1
15 Agosto 2020 07:50 tempo osservato: Poco Nuvoloso Poco Nuvoloso 22 68 1013 vento: Nord N 5.5
15 Agosto 2020 07:20 tempo osservato: Molto Nuvoloso Molto Nuvoloso 21 73 1013 vento: Nord N 3.7
15 Agosto 2020 06:50 tempo osservato: Molto Nuvoloso Molto Nuvoloso 21 77 1013 vento: Nord N 5.5
15 Agosto 2020 06:20 tempo osservato: Molto Nuvoloso Molto Nuvoloso 20 77 1012 vento: Nord N 5.5
15 Agosto 2020 05:50 tempo osservato: Nuvoloso Nuvoloso 21 73 1012 vento: Nord N 1.8
15 Agosto 2020 05:20 tempo osservato: Molto Nuvoloso Molto Nuvoloso 21 73 1012 vento: Nord N 3.7
15 Agosto 2020 04:50 tempo osservato: Molto Nuvoloso Molto Nuvoloso 21 73 1012 vento: Nord NE 7.4
15 Agosto 2020 04:20 tempo osservato: Sereno Sereno 21 73 1012 vento: Nord NE 11.1
15 Agosto 2020 03:50 tempo osservato: Sereno Sereno 21 77 1012 vento: Nord NE 11.1
15 Agosto 2020 03:20 tempo osservato: Sereno Sereno 21 73 1012 vento: Nord NE 13
15 Agosto 2020 02:50 tempo osservato: Sereno Sereno 21 77 1012 vento: Nord NE 13
15 Agosto 2020 02:20 tempo osservato: Sereno Sereno 21 73 1012 vento: Nord NE 9.3
15 Agosto 2020 01:50 tempo osservato: Sereno Sereno 22 68 1012 vento: Nord NE 13
15 Agosto 2020 01:20 tempo osservato: Sereno Sereno 22 68 1012 vento: Nord NE 16.7
15 Agosto 2020 00:50 tempo osservato: Sereno Sereno 22 73 1013 vento: Nord N/NE 14.8
15 Agosto 2020 00:20 tempo osservato: Sereno Sereno 22 73 1013 vento: Nord NE 14.8
14 Agosto 2020 23:50 tempo osservato: Sereno Sereno 23 64 1013 vento: Nord E 16.7
14 Agosto 2020 23:20 tempo osservato: Sereno Sereno 23 64 1012 vento: Nord E/NE 18.5
14 Agosto 2020 22:50 tempo osservato: Sereno Sereno 23 68 1012 vento: Nord E/NE 16.7
14 Agosto 2020 22:20 tempo osservato: Sereno Sereno 23 68 1012 vento: Nord E/NE 18.5
14 Agosto 2020 21:20 tempo osservato: Sereno Sereno 24 60 1012 vento: Nord NE 18.5
14 Agosto 2020 20:50 tempo osservato: Sereno Sereno 24 60 1012 vento: Nord NE 18.5
14 Agosto 2020 20:20 tempo osservato: Sereno Sereno 24 64 1011 vento: Nord E/NE 18.5
14 Agosto 2020 19:50 tempo osservato: Sereno Sereno 25 61 1011 vento: Nord NE 16.7
14 Agosto 2020 18:50 tempo osservato: Sereno Sereno 26 57 1011 vento: Nord E/NE 22.2
14 Agosto 2020 18:20 tempo osservato: Sereno Sereno 26 54 1011 vento: Nord NE 18.5
14 Agosto 2020 17:50 tempo osservato: Sereno Sereno 26 54 1011 vento: Nord NE 20.3
14 Agosto 2020 16:50 tempo osservato: Sereno Sereno 28 45 1011 vento: Nord NE 16.7
14 Agosto 2020 16:20 tempo osservato: Sereno Sereno 27 50 1011 vento: Nord N/NE 24
14 Agosto 2020 15:50 tempo osservato: Sereno Sereno 27 50 1012 vento: Nord NE 20.3
14 Agosto 2020 15:20 tempo osservato: Sereno Sereno 26 57 1012 vento: Nord N/NE 18.5
14 Agosto 2020 14:50 tempo osservato: Sereno Sereno 24 69 1012 vento: Nord NE 24
14 Agosto 2020 14:20 tempo osservato: Temporale Temporale 26 57 1012 vento: Nord E/NE 16.7
14 Agosto 2020 13:50 tempo osservato: Temporale Temporale 27 50 1012 vento: Nord N 25.9
14 Agosto 2020 13:20 tempo osservato: Temporale nelle vicinanze Temporale nelle vicinanze 30 58 1012 vento: Nord N 3.7
14 Agosto 2020 12:50 tempo osservato: Temporale Temporale 29 62 1013 vento: Nord N 3.7
14 Agosto 2020 12:20 tempo osservato: Poco Nuvoloso Poco Nuvoloso 29 62 1012 vento: Nord N 5.5
14 Agosto 2020 11:50 tempo osservato: Sereno Sereno 29 62 1013 vento: Nord S 7.4
14 Agosto 2020 11:20 tempo osservato: Sereno Sereno 28 61 1013 vento: Nord N 3.7
14 Agosto 2020 10:50 tempo osservato: Poco Nuvoloso Poco Nuvoloso 28 58 1013 vento: Nord N 5.5
14 Agosto 2020 10:20 tempo osservato: Nuvoloso Nuvoloso 27 61 1013 vento: Nord SE 7.4
14 Agosto 2020 09:50 tempo osservato: Poco Nuvoloso Poco Nuvoloso 27 61 1013 vento: Nord N 5.5